Time;durP1;ratioP1;P1;durP2;ratioP2;P2;SDS_P1;SDS_P2;PMS_P1;PMS_P2;Temp;Humidity;BMP_temperature;BMP_pressure;BME280_temperature;BME280_humidity;BME280_pressure;Samples;Min_cycle;Max_cycle;Signal;HPM_P1;HPM_P2
2022/07/06 00:01:19;;;;;;;6.13;0.70;;;14.30;99.90;;;;;;4838305;29;20402;-42
2022/07/06 00:03:44;;;;;;;2.70;0.65;;;14.20;99.90;;;;;;4853865;29;20075;-41
2022/07/06 00:06:10;;;;;;;3.40;0.60;;;14.20;99.90;;;;;;4852467;29;20502;-42
2022/07/06 00:08:36;;;;;;;2.88;0.60;;;14.20;99.90;;;;;;4835272;29;20061;-41
2022/07/06 00:11:02;;;;;;;5.13;0.80;;;14.20;99.90;;;;;;4860376;29;20451;-41
2022/07/06 00:13:28;;;;;;;3.22;0.70;;;14.10;99.90;;;;;;4858999;29;20050;-41
2022/07/06 00:15:53;;;;;;;2.67;0.47;;;14.10;99.90;;;;;;4842959;29;20053;-41
2022/07/06 00:18:19;;;;;;;4.55;0.88;;;14.10;99.90;;;;;;4837707;29;20066;-41
2022/07/06 00:20:45;;;;;;;5.80;0.70;;;14.10;99.90;;;;;;4851723;29;20045;-41
2022/07/06 00:23:10;;;;;;;6.07;0.75;;;14.00;99.90;;;;;;4858720;29;20097;-41
2022/07/06 00:25:36;;;;;;;2.13;0.80;;;14.00;99.90;;;;;;4859544;29;20081;-41
2022/07/06 00:28:03;;;;;;;1.88;0.40;;;14.00;99.90;;;;;;4825582;29;20081;-42
2022/07/06 00:30:28;;;;;;;3.88;0.65;;;14.00;99.90;;;;;;4848845;29;20502;-41
2022/07/06 00:32:54;;;;;;;3.47;0.50;;;13.90;99.90;;;;;;4844812;29;20056;-41
2022/07/06 00:35:20;;;;;;;3.75;0.52;;;13.90;99.90;;;;;;4859505;29;20053;-41
2022/07/06 00:37:46;;;;;;;1.60;0.40;;;13.90;99.90;;;;;;4844194;29;20041;-42
2022/07/06 00:40:12;;;;;;;3.95;0.57;;;13.80;99.90;;;;;;4848960;29;20058;-41
2022/07/06 00:42:42;;;;;;;3.92;0.63;;;13.80;99.90;;;;;;4827800;29;20076;-41
2022/07/06 00:45:08;;;;;;;3.90;0.73;;;13.80;99.90;;;;;;4842810;29;20057;-41
2022/07/06 00:47:34;;;;;;;2.20;0.60;;;13.80;99.90;;;;;;4843286;29;20045;-41
2022/07/06 00:50:18;;;;;;;2.58;0.80;;;13.80;99.90;;;;;;4850865;29;20120;-43
2022/07/06 00:53:05;;;;;;;2.63;0.45;;;13.80;99.90;;;;;;4840695;29;20050;-42
2022/07/06 00:55:33;;;;;;;2.88;0.70;;;13.80;99.90;;;;;;4843184;29;20049;-42
2022/07/06 00:58:02;;;;;;;1.70;0.60;;;13.80;99.90;;;;;;4843523;29;20660;-42
2022/07/06 01:00:28;;;;;;;4.38;0.68;;;13.80;99.90;;;;;;4856111;29;20056;-42
2022/07/06 01:02:55;;;;;;;2.90;0.70;;;13.70;99.90;;;;;;4840102;29;20050;-42
2022/07/06 01:05:21;;;;;;;6.15;1.10;;;13.70;99.90;;;;;;4856280;29;20100;-41
2022/07/06 01:07:48;;;;;;;7.32;0.85;;;13.70;99.90;;;;;;4843118;29;20057;-41
2022/07/06 01:10:16;;;;;;;4.45;1.00;;;13.70;99.90;;;;;;4858982;29;20401;-41
2022/07/06 01:12:43;;;;;;;7.20;0.90;;;13.70;99.90;;;;;;4858342;29;20101;-41
2022/07/06 01:15:15;;;;;;;5.40;0.90;;;13.70;99.90;;;;;;4856636;29;20053;-41
2022/07/06 01:17:42;;;;;;;5.88;0.50;;;13.70;99.90;;;;;;4824266;29;20049;-41
2022/07/06 01:20:11;;;;;;;4.32;0.63;;;13.80;99.90;;;;;;4840251;29;20091;-41
2022/07/06 01:22:37;;;;;;;6.88;0.90;;;13.80;99.90;;;;;;4851666;29;20049;-42
2022/07/06 01:25:05;;;;;;;4.80;0.80;;;13.80;99.90;;;;;;4855045;29;20413;-41
2022/07/06 01:27:30;;;;;;;3.00;0.60;;;13.80;99.90;;;;;;4815360;29;20053;-41
2022/07/06 01:29:56;;;;;;;2.63;0.55;;;13.90;99.90;;;;;;4851723;29;20054;-41
2022/07/06 01:32:22;;;;;;;4.43;0.85;;;13.80;99.90;;;;;;4828820;29;20053;-41
2022/07/06 01:34:47;;;;;;;4.03;0.57;;;13.90;99.90;;;;;;4858611;29;20053;-41
2022/07/06 01:37:13;;;;;;;4.88;0.70;;;13.80;99.90;;;;;;4843633;29;20101;-41
2022/07/06 01:39:39;;;;;;;6.55;0.57;;;13.80;99.90;;;;;;4858677;29;20041;-41
2022/07/06 01:42:05;;;;;;;4.00;0.82;;;13.90;99.90;;;;;;4856900;29;20132;-42
2022/07/06 01:44:31;;;;;;;3.65;0.52;;;13.90;99.90;;;;;;4855370;29;20084;-41
2022/07/06 01:46:56;;;;;;;3.45;0.70;;;13.90;99.90;;;;;;4843188;29;20459;-41
2022/07/06 01:49:22;;;;;;;8.40;0.88;;;13.90;99.90;;;;;;4856777;29;20065;-41
2022/07/06 01:51:47;;;;;;;6.65;0.70;;;13.90;99.90;;;;;;4838667;29;20053;-42
2022/07/06 01:54:13;;;;;;;2.67;0.60;;;13.90;99.90;;;;;;4837643;29;20065;-41
2022/07/06 01:56:39;;;;;;;3.45;0.80;;;13.90;99.90;;;;;;4826473;29;20053;-41
2022/07/06 01:59:04;;;;;;;5.95;0.60;;;13.80;99.90;;;;;;4836034;29;20078;-41
2022/07/06 02:01:30;;;;;;;3.13;0.50;;;13.90;99.90;;;;;;4838363;29;20045;-41
2022/07/06 02:03:58;;;;;;;4.93;0.60;;;13.90;99.90;;;;;;4838703;29;20046;-41
2022/07/06 02:06:23;;;;;;;4.50;0.60;;;13.90;99.90;;;;;;4827510;29;20060;-42
2022/07/06 02:08:51;;;;;;;5.40;0.77;;;13.90;99.90;;;;;;4835444;29;20062;-41
2022/07/06 02:11:17;;;;;;;4.78;0.65;;;13.90;99.90;;;;;;4839800;29;20078;-41
2022/07/06 02:13:42;;;;;;;5.40;0.73;;;13.90;99.90;;;;;;4844440;29;20095;-41
2022/07/06 02:16:08;;;;;;;6.22;0.65;;;13.90;99.90;;;;;;4834828;29;20085;-42
2022/07/06 02:18:34;;;;;;;5.13;0.80;;;13.90;99.90;;;;;;4829221;29;20137;-41
2022/07/06 02:21:00;;;;;;;3.78;0.75;;;13.90;99.90;;;;;;4851768;29;20136;-41
2022/07/06 02:23:26;;;;;;;4.75;0.88;;;13.80;99.90;;;;;;4856521;29;20062;-41
2022/07/06 02:25:52;;;;;;;7.40;0.93;;;13.80;99.90;;;;;;4845500;29;20097;-41
2022/07/06 02:28:17;;;;;;;4.80;0.90;;;13.80;99.90;;;;;;4841044;29;20057;-41
2022/07/06 02:30:43;;;;;;;4.20;1.08;;;13.70;99.90;;;;;;4857667;29;20049;-42
2022/07/06 02:33:08;;;;;;;3.42;0.60;;;13.70;99.90;;;;;;4850446;29;20053;-41
2022/07/06 02:35:34;;;;;;;4.53;0.75;;;13.70;99.90;;;;;;4851539;29;20054;-41
2022/07/06 02:38:00;;;;;;;5.82;0.73;;;13.70;99.90;;;;;;4842126;29;20053;-41
2022/07/06 02:40:25;;;;;;;2.67;0.95;;;13.70;99.90;;;;;;4857634;29;20110;-41
2022/07/06 02:42:51;;;;;;;4.10;0.70;;;13.60;99.90;;;;;;4856414;29;20078;-41
2022/07/06 02:45:17;;;;;;;3.13;0.77;;;13.60;99.90;;;;;;4854652;29;20474;-41
2022/07/06 02:47:42;;;;;;;6.78;1.02;;;13.50;99.90;;;;;;4828713;29;20069;-41
2022/07/06 02:50:08;;;;;;;3.60;0.90;;;13.50;99.90;;;;;;4857284;29;20536;-41
2022/07/06 02:52:34;;;;;;;2.45;0.73;;;13.50;99.90;;;;;;4836613;29;20218;-41
2022/07/06 02:54:59;;;;;;;4.95;0.90;;;13.40;99.90;;;;;;4837762;29;20054;-41
2022/07/06 02:57:25;;;;;;;1.83;0.40;;;13.40;99.90;;;;;;4823064;29;20481;-42
2022/07/06 02:59:51;;;;;;;6.28;0.80;;;13.40;99.90;;;;;;4839021;29;20053;-42
2022/07/06 03:02:17;;;;;;;4.80;1.20;;;13.30;99.90;;;;;;4838301;29;20054;-41
2022/07/06 03:04:43;;;;;;;4.05;0.60;;;13.30;99.90;;;;;;4849946;29;20057;-41
2022/07/06 03:07:08;;;;;;;3.05;0.63;;;13.20;99.90;;;;;;4836400;29;20610;-42
2022/07/06 03:09:34;;;;;;;3.63;0.70;;;13.20;99.90;;;;;;4838898;29;20184;-41
2022/07/06 03:12:00;;;;;;;3.03;0.70;;;13.20;99.90;;;;;;4835670;29;20490;-41
2022/07/06 03:14:26;;;;;;;6.82;0.57;;;13.20;99.90;;;;;;4834443;29;20049;-41
2022/07/06 03:16:52;;;;;;;3.05;0.55;;;13.10;99.90;;;;;;4837245;29;20061;-42
2022/07/06 03:19:18;;;;;;;3.20;0.70;;;13.10;99.90;;;;;;4837731;29;20662;-41
2022/07/06 03:21:44;;;;;;;7.72;0.80;;;13.10;99.90;;;;;;4838744;29;20077;-41
2022/07/06 03:24:10;;;;;;;4.00;0.80;;;13.00;99.90;;;;;;4845694;29;20109;-41
2022/07/06 03:26:36;;;;;;;6.28;0.70;;;13.10;99.90;;;;;;4826734;29;20037;-42
2022/07/06 03:29:01;;;;;;;3.72;0.57;;;13.00;99.90;;;;;;4837782;29;20057;-41
2022/07/06 03:31:27;;;;;;;2.97;0.90;;;12.90;99.90;;;;;;4839060;29;20054;-41
2022/07/06 03:33:53;;;;;;;5.65;0.80;;;12.90;99.90;;;;;;4837778;29;20141;-41
2022/07/06 03:36:19;;;;;;;5.22;0.60;;;12.90;99.90;;;;;;4828016;29;20081;-42
2022/07/06 03:38:44;;;;;;;5.00;0.70;;;12.80;99.90;;;;;;4834331;29;20058;-41
2022/07/06 03:41:11;;;;;;;4.60;0.75;;;12.80;99.90;;;;;;4860180;29;20049;-41
2022/07/06 03:43:37;;;;;;;3.70;0.55;;;12.70;99.90;;;;;;4859503;29;20097;-41
2022/07/06 03:46:03;;;;;;;4.82;0.60;;;12.80;99.90;;;;;;4843502;29;20100;-41
2022/07/06 03:48:28;;;;;;;4.53;0.95;;;12.80;99.90;;;;;;4843986;29;20069;-41
2022/07/06 03:50:55;;;;;;;3.15;0.60;;;12.60;99.90;;;;;;4856533;29;20058;-41
2022/07/06 03:53:21;;;;;;;5.25;0.65;;;12.70;99.90;;;;;;4840843;29;20728;-41
2022/07/06 03:56:27;;;;;;;3.92;1.00;;;12.60;99.90;;;;;;4842218;29;20133;-41
2022/07/06 03:58:32;;;;;;;7.47;0.88;;;12.60;99.90;;;;;;4830575;29;20050;-42
2022/07/06 04:00:58;;;;;;;3.58;0.75;;;12.50;99.90;;;;;;4842022;29;20562;-41
2022/07/06 04:03:24;;;;;;;3.88;0.60;;;12.60;99.90;;;;;;4840610;29;20084;-41
2022/07/06 04:05:49;;;;;;;3.55;0.60;;;12.60;99.90;;;;;;4842910;29;20103;-41
2022/07/06 04:08:15;;;;;;;3.33;0.70;;;12.50;99.90;;;;;;4843522;29;20049;-42
2022/07/06 04:10:41;;;;;;;5.07;0.90;;;12.50;99.90;;;;;;4840484;29;20062;-41
2022/07/06 04:13:06;;;;;;;4.47;0.60;;;12.50;99.90;;;;;;4845344;29;20132;-41
2022/07/06 04:15:33;;;;;;;4.38;0.70;;;12.50;99.90;;;;;;4860214;29;20045;-41
2022/07/06 04:17:59;;;;;;;5.30;0.70;;;12.50;99.90;;;;;;4841464;29;20107;-42
2022/07/06 04:20:25;;;;;;;3.08;0.70;;;12.50;99.90;;;;;;4857847;29;20077;-41
2022/07/06 04:22:51;;;;;;;3.30;0.65;;;12.50;99.90;;;;;;4855249;29;20045;-41
2022/07/06 04:25:17;;;;;;;4.35;0.60;;;12.60;99.90;;;;;;4857873;29;20075;-42
2022/07/06 04:27:43;;;;;;;4.43;0.30;;;12.60;99.90;;;;;;4833395;29;20118;-41
2022/07/06 04:30:09;;;;;;;3.25;0.70;;;12.60;99.90;;;;;;4859743;29;20129;-41
2022/07/06 04:32:35;;;;;;;3.90;0.50;;;12.70;99.90;;;;;;4844527;29;20050;-41
2022/07/06 04:35:03;;;;;;;2.95;0.50;;;12.70;99.90;;;;;;4834763;29;20081;-41
2022/07/06 04:37:28;;;;;;;5.88;0.40;;;12.80;99.90;;;;;;4840711;29;20064;-41
2022/07/06 04:39:54;;;;;;;6.45;0.68;;;12.80;99.90;;;;;;4859379;29;20053;-41
2022/07/06 04:42:19;;;;;;;3.95;0.45;;;12.80;99.90;;;;;;4846450;29;20688;-41
2022/07/06 04:44:45;;;;;;;3.45;0.50;;;12.90;99.90;;;;;;4856456;29;20545;-41
2022/07/06 04:47:12;;;;;;;2.28;0.30;;;12.90;99.90;;;;;;4843489;29;20064;-42
2022/07/06 04:49:37;;;;;;;2.95;0.30;;;12.90;99.90;;;;;;4840541;29;20060;-41
2022/07/06 04:52:04;;;;;;;2.58;0.43;;;13.00;99.90;;;;;;4840073;29;20049;-43
2022/07/06 04:54:29;;;;;;;1.73;0.20;;;13.00;99.90;;;;;;4839540;29;20046;-41
2022/07/06 04:56:55;;;;;;;2.35;0.32;;;13.00;99.90;;;;;;4825503;29;20053;-41
2022/07/06 04:59:21;;;;;;;3.13;0.40;;;13.10;99.90;;;;;;4839366;29;20057;-41
2022/07/06 05:01:46;;;;;;;0.70;0.30;;;13.20;99.90;;;;;;4840415;29;20089;-42
2022/07/06 05:04:13;;;;;;;2.67;0.40;;;13.20;99.90;;;;;;4839614;29;20050;-42
2022/07/06 05:06:39;;;;;;;6.45;0.32;;;13.20;99.90;;;;;;4839422;29;20057;-42
2022/07/06 05:09:05;;;;;;;2.80;0.30;;;13.20;99.90;;;;;;4838104;29;20114;-42
2022/07/06 05:11:31;;;;;;;1.10;0.30;;;13.30;99.90;;;;;;4840493;29;20049;-41
2022/07/06 05:13:57;;;;;;;5.97;0.45;;;13.30;99.90;;;;;;4841704;29;20057;-41
2022/07/06 05:16:23;;;;;;;3.85;0.43;;;13.30;99.90;;;;;;4834428;29;20058;-42
2022/07/06 05:18:48;;;;;;;3.05;0.80;;;13.40;99.90;;;;;;4841686;29;20413;-41
2022/07/06 05:21:14;;;;;;;5.85;0.47;;;13.40;99.90;;;;;;4850195;29;20049;-42
2022/07/06 05:23:40;;;;;;;4.57;0.90;;;13.40;99.90;;;;;;4853022;29;20085;-41
2022/07/06 05:26:06;;;;;;;2.42;0.60;;;13.40;99.90;;;;;;4848414;29;20053;-42
2022/07/06 05:28:32;;;;;;;5.15;0.70;;;13.30;99.90;;;;;;4835584;29;20044;-41
2022/07/06 05:30:57;;;;;;;4.43;0.77;;;13.30;99.90;;;;;;4858758;29;20049;-42
2022/07/06 05:33:23;;;;;;;6.95;0.90;;;13.30;99.90;;;;;;4857718;29;20049;-41
2022/07/06 05:35:48;;;;;;;4.65;0.60;;;13.20;99.90;;;;;;4841878;29;20087;-41
2022/07/06 05:38:14;;;;;;;3.88;0.65;;;13.30;99.90;;;;;;4835276;29;20061;-41
2022/07/06 05:40:40;;;;;;;4.95;0.50;;;13.40;99.90;;;;;;4839967;29;20058;-41
2022/07/06 05:43:06;;;;;;;3.28;0.57;;;13.40;99.90;;;;;;4847407;29;20056;-41
2022/07/06 05:45:31;;;;;;;4.90;0.68;;;13.40;99.90;;;;;;4852497;29;20038;-42
2022/07/06 05:50:41;;;;;;;3.72;0.82;;;13.50;99.90;;;;;;4856092;29;20064;-41
2022/07/06 05:53:07;;;;;;;5.53;0.40;;;13.50;99.90;;;;;;4839459;29;20422;-41
2022/07/06 05:55:33;;;;;;;4.80;0.90;;;13.50;99.90;;;;;;4842101;29;20398;-41
2022/07/06 05:57:59;;;;;;;4.53;0.70;;;13.60;99.90;;;;;;4842603;29;20046;-41
2022/07/06 06:00:26;;;;;;;5.25;0.70;;;13.60;99.90;;;;;;4826854;29;20106;-41
2022/07/06 06:02:52;;;;;;;4.32;0.60;;;13.60;99.90;;;;;;4838371;29;20506;-41
2022/07/06 06:05:19;;;;;;;4.78;0.63;;;13.60;99.90;;;;;;4851875;29;20057;-42
2022/07/06 06:07:49;;;;;;;2.95;0.50;;;13.60;99.90;;;;;;4823973;29;20062;-41
2022/07/06 06:10:16;;;;;;;4.05;0.55;;;13.60;99.90;;;;;;4839449;29;20042;-42
2022/07/06 06:12:41;;;;;;;4.75;0.60;;;13.70;99.90;;;;;;4848660;29;20516;-41
2022/07/06 06:15:08;;;;;;;3.17;0.50;;;13.70;99.90;;;;;;4848216;29;20054;-41
2022/07/06 06:17:36;;;;;;;2.65;0.65;;;13.70;99.90;;;;;;4823453;29;20073;-41
2022/07/06 06:20:02;;;;;;;4.30;0.50;;;13.70;99.90;;;;;;4856339;29;20042;-41
2022/07/06 06:22:28;;;;;;;3.35;0.43;;;13.80;99.90;;;;;;4856983;29;20049;-41
2022/07/06 06:24:54;;;;;;;4.70;0.70;;;13.80;99.90;;;;;;4850560;29;20064;-41
2022/07/06 06:27:19;;;;;;;2.47;0.52;;;13.80;99.90;;;;;;4832816;29;20049;-41
2022/07/06 06:29:45;;;;;;;5.38;0.65;;;13.80;99.90;;;;;;4857782;29;20057;-41
2022/07/06 06:32:12;;;;;;;4.35;0.60;;;13.80;99.90;;;;;;4857275;29;20059;-41
2022/07/06 06:34:38;;;;;;;2.25;0.52;;;13.90;99.90;;;;;;4853280;29;20049;-41
2022/07/06 06:37:04;;;;;;;7.00;0.95;;;13.90;99.90;;;;;;4841335;29;20351;-42
2022/07/06 06:39:29;;;;;;;6.00;0.47;;;14.00;99.90;;;;;;4854200;29;20060;-42
2022/07/06 06:41:55;;;;;;;4.22;0.80;;;14.10;99.90;;;;;;4839931;29;20462;-42
2022/07/06 06:44:23;;;;;;;7.47;1.00;;;14.20;99.90;;;;;;4855338;29;20053;-42
2022/07/06 06:46:49;;;;;;;4.25;0.70;;;14.30;99.90;;;;;;4838454;29;20049;-42
2022/07/06 06:49:15;;;;;;;4.57;0.60;;;14.50;99.90;;;;;;4837464;29;20069;-42
2022/07/06 06:51:41;;;;;;;7.88;0.73;;;14.60;99.90;;;;;;4857500;29;20057;-43
2022/07/06 06:54:06;;;;;;;3.67;0.60;;;14.60;99.90;;;;;;4854475;29;20054;-43
2022/07/06 06:56:32;;;;;;;5.20;0.73;;;14.60;99.90;;;;;;4841102;29;20363;-43
2022/07/06 06:58:58;;;;;;;4.47;0.52;;;14.60;99.90;;;;;;4852772;29;20061;-42
2022/07/06 07:01:24;;;;;;;2.35;0.45;;;14.70;99.90;;;;;;4857374;29;20105;-42
2022/07/06 07:03:51;;;;;;;4.05;0.50;;;14.70;99.90;;;;;;4812125;29;20087;-42
2022/07/06 07:06:17;;;;;;;4.00;0.40;;;14.80;99.90;;;;;;4834375;29;20053;-42
2022/07/06 07:08:42;;;;;;;3.95;0.40;;;14.90;99.90;;;;;;4849751;29;20064;-42
2022/07/06 07:11:08;;;;;;;4.78;0.50;;;15.00;99.90;;;;;;4853365;29;20505;-42
2022/07/06 07:13:34;;;;;;;3.80;0.47;;;15.10;99.90;;;;;;4839381;29;20061;-43
2022/07/06 07:15:59;;;;;;;3.25;0.57;;;15.20;99.90;;;;;;4857407;29;20065;-42
2022/07/06 07:18:25;;;;;;;5.47;0.30;;;15.30;99.90;;;;;;4839508;29;20054;-42
2022/07/06 07:20:51;;;;;;;3.95;0.38;;;15.40;99.90;;;;;;4857700;29;20052;-43
2022/07/06 07:23:16;;;;;;;2.60;0.47;;;15.50;99.90;;;;;;4867679;29;20057;-43
2022/07/06 07:25:42;;;;;;;5.65;0.60;;;15.60;99.90;;;;;;4859914;29;20454;-42
2022/07/06 07:28:08;;;;;;;3.80;0.55;;;15.80;99.90;;;;;;4838192;29;20053;-42
2022/07/06 07:30:34;;;;;;;3.55;0.30;;;15.80;99.90;;;;;;4857083;29;20747;-42
2022/07/06 07:33:00;;;;;;;3.25;0.50;;;15.90;99.90;;;;;;4854819;29;20241;-42
2022/07/06 07:35:27;;;;;;;5.35;0.60;;;15.90;99.90;;;;;;4856868;29;20057;-42
2022/07/06 07:37:53;;;;;;;5.93;0.50;;;16.00;99.90;;;;;;4841894;29;20061;-42
2022/07/06 07:40:19;;;;;;;3.58;0.40;;;16.10;99.90;;;;;;4855744;29;20046;-42
2022/07/06 07:42:45;;;;;;;4.28;0.32;;;16.20;99.90;;;;;;4853021;29;20046;-42
2022/07/06 07:45:12;;;;;;;1.73;0.30;;;16.30;99.90;;;;;;4858628;29;20132;-42
2022/07/06 07:47:38;;;;;;;3.30;0.30;;;16.40;99.90;;;;;;4840696;29;20058;-42
2022/07/06 07:50:04;;;;;;;2.40;0.20;;;16.50;99.90;;;;;;4857029;29;20136;-42
2022/07/06 07:52:30;;;;;;;2.78;0.43;;;16.50;99.90;;;;;;4856509;29;20045;-42
2022/07/06 07:54:56;;;;;;;5.78;0.30;;;16.50;99.90;;;;;;4856935;29;20061;-42
2022/07/06 07:57:22;;;;;;;2.13;0.30;;;16.60;99.90;;;;;;4840506;29;20046;-42
2022/07/06 07:59:48;;;;;;;3.35;0.25;;;16.60;99.90;;;;;;4856734;29;20049;-42
2022/07/06 08:02:13;;;;;;;3.92;0.40;;;16.50;99.90;;;;;;4837831;29;20049;-42
2022/07/06 08:04:39;;;;;;;2.17;0.10;;;16.60;99.90;;;;;;4856074;29;20420;-42
2022/07/06 08:07:06;;;;;;;3.03;0.35;;;16.60;99.90;;;;;;4841182;29;20060;-44
2022/07/06 08:09:31;;;;;;;2.15;0.30;;;16.50;99.90;;;;;;4823794;29;20128;-42
2022/07/06 08:11:58;;;;;;;3.17;0.32;;;16.60;99.90;;;;;;4856132;29;20218;-42
2022/07/06 08:14:24;;;;;;;1.83;0.20;;;16.60;99.90;;;;;;4862136;29;20049;-42
2022/07/06 08:16:49;;;;;;;1.33;0.20;;;16.60;99.90;;;;;;4818600;29;20057;-42
2022/07/06 08:19:15;;;;;;;4.70;0.47;;;16.70;99.90;;;;;;4855242;29;20057;-42
2022/07/06 08:21:42;;;;;;;1.85;0.10;;;16.70;99.90;;;;;;4856232;29;20175;-42
2022/07/06 08:24:08;;;;;;;1.80;0.20;;;16.80;99.90;;;;;;4855003;29;20057;-42
2022/07/06 08:26:34;;;;;;;2.92;0.25;;;16.80;99.90;;;;;;4825764;29;20076;-42
2022/07/06 08:29:00;;;;;;;1.05;0.28;;;16.80;99.90;;;;;;4850420;29;20057;-42
2022/07/06 08:31:29;;;;;;;1.45;0.20;;;16.90;99.90;;;;;;4855149;29;20740;-42
2022/07/06 08:33:55;;;;;;;2.50;0.22;;;17.00;99.90;;;;;;4854733;29;20084;-42
2022/07/06 08:36:22;;;;;;;3.20;0.55;;;17.00;99.90;;;;;;4826652;29;20053;-42
2022/07/06 08:38:48;;;;;;;2.55;0.10;;;17.00;99.90;;;;;;4852665;29;20041;-42
2022/07/06 08:41:21;;;;;;;3.58;0.35;;;17.10;99.90;;;;;;4853363;29;20121;-42
2022/07/06 08:43:46;;;;;;;1.77;0.20;;;17.10;99.90;;;;;;4855013;29;20053;-42
2022/07/06 08:46:14;;;;;;;5.28;0.45;;;17.00;99.90;;;;;;4850963;29;20110;-42
2022/07/06 08:48:41;;;;;;;1.17;0.15;;;17.00;99.90;;;;;;4848195;29;20394;-42
2022/07/06 08:51:06;;;;;;;2.88;0.20;;;16.90;99.90;;;;;;4823057;29;20092;-42
2022/07/06 08:53:33;;;;;;;2.97;0.30;;;16.80;99.90;;;;;;4817582;29;20054;-42
2022/07/06 08:56:01;;;;;;;6.78;0.52;;;16.80;99.90;;;;;;4818504;29;20062;-42
2022/07/06 08:58:27;;;;;;;3.58;0.20;;;16.80;99.90;;;;;;4802945;29;20058;-42
2022/07/06 09:00:57;;;;;;;1.95;0.30;;;16.80;99.90;;;;;;4824985;29;20051;-42
2022/07/06 09:03:25;;;;;;;4.90;0.43;;;16.80;99.90;;;;;;4817006;29;20130;-42
2022/07/06 09:05:52;;;;;;;6.05;0.38;;;16.90;99.90;;;;;;4818610;29;20503;-42
2022/07/06 09:08:18;;;;;;;5.35;0.50;;;16.90;99.90;;;;;;4802469;29;20057;-42
2022/07/06 09:10:44;;;;;;;3.92;0.30;;;17.00;99.90;;;;;;4818767;29;20107;-42
2022/07/06 09:13:10;;;;;;;2.08;0.35;;;17.10;99.90;;;;;;4818111;29;20058;-42
2022/07/06 09:15:40;;;;;;;5.90;0.40;;;17.00;99.90;;;;;;4819580;29;20092;-42
2022/07/06 09:18:06;;;;;;;1.93;0.30;;;17.10;99.90;;;;;;4803847;29;20133;-42
2022/07/06 09:20:33;;;;;;;3.38;0.50;;;17.10;99.90;;;;;;4818551;29;20217;-42
2022/07/06 09:23:00;;;;;;;3.33;0.40;;;17.20;99.90;;;;;;4817622;29;20058;-42
2022/07/06 09:25:27;;;;;;;4.10;0.40;;;17.40;99.90;;;;;;4818088;29;20607;-42
2022/07/06 09:27:55;;;;;;;2.70;0.28;;;17.40;99.90;;;;;;4799064;29;20055;-42
2022/07/06 09:30:23;;;;;;;3.33;0.30;;;17.50;99.90;;;;;;4818124;29;20047;-42
2022/07/06 09:32:51;;;;;;;4.10;0.63;;;17.60;99.90;;;;;;4817137;29;20047;-42
2022/07/06 09:35:29;;;;;;;3.05;0.35;;;17.50;99.90;;;;;;4817757;29;20499;-42
2022/07/06 09:38:13;;;;;;;1.85;0.30;;;17.50;99.90;;;;;;4802615;29;20057;-42
2022/07/06 09:40:44;;;;;;;3.10;0.40;;;17.50;99.90;;;;;;4817908;29;20165;-42
2022/07/06 09:43:10;;;;;;;5.38;0.50;;;17.50;99.90;;;;;;4815136;29;20534;-42
2022/07/06 09:45:36;;;;;;;2.42;0.22;;;17.50;99.90;;;;;;4819789;29;20137;-42
2022/07/06 09:48:31;;;;;;;1.75;0.22;;;17.60;99.90;;;;;;4802311;29;20047;-42
2022/07/06 09:50:59;;;;;;;2.30;0.40;;;17.50;99.90;;;;;;4829434;29;20076;-42
2022/07/06 09:53:26;;;;;;;3.50;0.22;;;17.50;99.90;;;;;;4853580;29;20061;-42
2022/07/06 09:55:54;;;;;;;3.92;0.40;;;17.50;99.90;;;;;;4854718;29;20065;-42
2022/07/06 09:58:38;;;;;;;4.97;0.40;;;17.40;99.90;;;;;;5091343;27;20450;-41
2022/07/06 10:01:03;;;;;;;2.05;0.40;;;17.40;99.90;;;;;;5079739;28;20045;-41
2022/07/06 10:03:30;;;;;;;3.70;0.50;;;17.40;99.90;;;;;;5083428;27;20056;-41
2022/07/06 10:05:57;;;;;;;2.83;0.30;;;17.50;99.90;;;;;;5084701;28;20080;-41
2022/07/06 10:08:23;;;;;;;5.88;0.45;;;17.60;99.90;;;;;;5067075;27;20392;-41
2022/07/06 10:10:49;;;;;;;2.88;0.40;;;17.70;99.90;;;;;;5085508;28;20071;-41
2022/07/06 10:13:21;;;;;;;3.10;0.50;;;17.70;99.90;;;;;;5085144;27;20044;-41
2022/07/06 10:15:47;;;;;;;2.13;0.50;;;17.80;99.90;;;;;;5082685;28;20047;-43
2022/07/06 10:18:14;;;;;;;2.45;0.40;;;17.80;99.90;;;;;;5067703;27;20051;-43
2022/07/06 10:20:40;;;;;;;3.92;0.35;;;17.90;99.90;;;;;;5082165;28;20062;-43
2022/07/06 10:23:08;;;;;;;2.58;0.43;;;18.00;99.90;;;;;;5074370;28;20048;-43
2022/07/06 10:25:34;;;;;;;5.45;0.40;;;18.00;99.90;;;;;;5101777;28;20648;-41
2022/07/06 10:28:00;;;;;;;2.75;0.40;;;18.00;99.90;;;;;;5056375;27;20388;-40
2022/07/06 10:30:28;;;;;;;3.00;0.50;;;18.10;99.90;;;;;;5072403;28;20546;-41
2022/07/06 10:32:55;;;;;;;1.30;0.20;;;18.20;99.90;;;;;;5073928;27;20617;-42
2022/07/06 10:35:21;;;;;;;2.70;0.20;;;18.20;99.90;;;;;;5086855;28;20059;-43
2022/07/06 10:38:06;;;;;;;3.72;0.28;;;18.20;99.90;;;;;;5073981;28;20036;-42
2022/07/06 10:43:22;;;;;;;2.50;0.32;;;18.30;99.90;;;;;;5094356;28;20047;-42
2022/07/06 10:45:48;;;;;;;1.02;0.13;;;18.40;99.90;;;;;;5109815;28;20039;-42
2022/07/06 10:48:17;;;;;;;4.35;0.40;;;18.40;99.90;;;;;;5095423;28;20039;-42
2022/07/06 10:50:47;;;;;;;2.10;0.20;;;18.40;99.90;;;;;;5102690;28;20066;-44
2022/07/06 10:53:14;;;;;;;3.17;0.38;;;18.50;99.90;;;;;;5102564;27;20040;-41
2022/07/06 10:55:50;;;;;;;1.75;0.45;;;18.50;99.90;;;;;;5103975;28;20457;-42
2022/07/06 10:58:37;;;;;;;2.65;0.28;;;18.60;99.90;;;;;;5087320;27;20047;-42
2022/07/06 11:01:05;;;;;;;2.75;0.30;;;18.60;99.90;;;;;;5106827;28;20055;-43
2022/07/06 11:03:40;;;;;;;2.92;0.20;;;18.60;99.90;;;;;;5105475;27;20081;-43
2022/07/06 11:06:12;;;;;;;1.05;0.10;;;18.70;99.90;;;;;;5105199;28;20521;-44
2022/07/06 11:08:56;;;;;;;3.35;0.30;;;18.80;99.90;;;;;;5092207;27;20048;-43
2022/07/06 11:11:23;;;;;;;2.35;0.30;;;18.80;99.90;;;;;;5090414;28;20105;-44
2022/07/06 11:13:53;;;;;;;3.00;0.25;;;18.90;99.90;;;;;;5091514;28;20074;-44
2022/07/06 11:16:21;;;;;;;2.33;0.20;;;19.00;99.90;;;;;;5078037;28;20089;-43
2022/07/06 11:19:00;;;;;;;3.17;0.20;;;19.00;99.90;;;;;;5089043;27;20063;-42
2022/07/06 11:21:56;;;;;;;2.70;0.20;;;19.10;99.90;;;;;;5090647;28;20048;-42
2022/07/06 11:24:23;;;;;;;2.42;0.32;;;19.10;99.90;;;;;;5088422;28;20047;-42
2022/07/06 11:26:51;;;;;;;1.38;0.15;;;19.10;99.90;;;;;;5075434;28;20039;-43
2022/07/06 11:29:21;;;;;;;4.68;0.40;;;19.10;99.90;;;;;;5091509;27;20093;-42
2022/07/06 11:31:48;;;;;;;1.02;0.22;;;19.10;99.90;;;;;;5092972;28;20031;-41
2022/07/06 11:34:20;;;;;;;1.75;0.20;;;19.20;99.90;;;;;;5089433;28;20046;-41
2022/07/06 11:36:47;;;;;;;1.90;0.20;;;19.20;99.90;;;;;;5074005;28;20510;-41
2022/07/06 11:39:13;;;;;;;2.00;0.20;;;19.30;99.90;;;;;;5091244;28;20040;-41
2022/07/06 11:41:39;;;;;;;1.88;0.20;;;19.30;99.90;;;;;;5091014;28;20052;-43
2022/07/06 11:44:04;;;;;;;1.45;0.17;;;19.40;99.90;;;;;;5089115;27;20122;-41
2022/07/06 11:46:33;;;;;;;1.70;0.35;;;19.30;99.90;;;;;;5074623;28;20036;-42
2022/07/06 11:49:04;;;;;;;2.78;0.40;;;19.50;99.90;;;;;;5084395;28;20517;-41
2022/07/06 11:51:31;;;;;;;;;;;19.60;99.90;;;;;;5087005;28;20052;-41
2022/07/06 11:54:00;;;;;;;1.27;0.30;;;19.60;99.90;;;;;;5087155;28;20378;-41
2022/07/06 11:56:27;;;;;;;3.33;0.57;;;19.60;99.90;;;;;;5074847;28;20094;-41
2022/07/06 11:58:57;;;;;;;2.08;0.28;;;19.60;99.90;;;;;;5083719;28;20052;-41
2022/07/06 12:01:25;;;;;;;2.03;0.40;;;19.60;99.90;;;;;;5070155;28;20052;-41
2022/07/06 12:03:51;;;;;;;3.25;0.52;;;19.60;99.90;;;;;;5088061;28;20047;-41
2022/07/06 12:06:22;;;;;;;3.75;0.30;;;19.60;99.90;;;;;;5076441;28;20043;-41
2022/07/06 12:08:54;;;;;;;2.47;0.30;;;19.70;99.90;;;;;;5083462;28;20048;-41
2022/07/06 12:11:22;;;;;;;1.70;0.20;;;19.60;99.90;;;;;;5086329;28;20491;-41
2022/07/06 12:13:48;;;;;;;1.38;0.20;;;19.60;99.90;;;;;;5086614;28;20058;-41
2022/07/06 12:16:16;;;;;;;2.83;0.38;;;19.60;99.90;;;;;;5076138;28;20105;-42
2022/07/06 12:18:47;;;;;;;1.10;0.30;;;19.70;99.90;;;;;;5082560;28;20072;-42
2022/07/06 12:21:21;;;;;;;0.55;0.13;;;19.70;99.90;;;;;;5086275;28;20048;-42
2022/07/06 12:23:49;;;;;;;2.55;0.50;;;19.70;99.90;;;;;;5086182;28;20525;-42
2022/07/06 12:26:17;;;;;;;3.95;0.50;;;19.70;99.90;;;;;;5077376;28;20048;-42
2022/07/06 12:28:43;;;;;;;2.55;0.30;;;19.80;99.90;;;;;;5081269;28;20051;-41
2022/07/06 12:31:10;;;;;;;2.05;0.40;;;19.90;99.90;;;;;;5087156;28;20056;-42
2022/07/06 12:33:36;;;;;;;2.20;0.25;;;20.00;99.90;;;;;;5072435;28;20091;-42
2022/07/06 12:36:15;;;;;;;1.83;0.20;;;20.00;99.90;;;;;;5085751;28;20122;-42
2022/07/06 12:38:48;;;;;;;1.15;0.30;;;20.00;99.90;;;;;;5079505;28;20061;-41
2022/07/06 12:41:26;;;;;;;3.67;0.40;;;20.00;99.90;;;;;;5085256;28;20059;-42
2022/07/06 12:44:04;;;;;;;4.18;0.40;;;20.10;99.90;;;;;;5084293;28;20043;-41
2022/07/06 12:46:35;;;;;;;2.28;0.35;;;20.00;99.90;;;;;;5074186;28;20040;-42
2022/07/06 12:49:11;;;;;;;1.35;0.20;;;20.10;99.90;;;;;;5086362;28;20079;-41
2022/07/06 12:51:48;;;;;;;3.78;0.55;;;20.10;99.90;;;;;;5088270;28;20051;-42
2022/07/06 12:54:15;;;;;;;3.30;0.40;;;20.10;99.90;;;;;;5077756;28;20077;-41